Time;durP1;ratioP1;P1;durP2;ratioP2;P2;SDS_P1;SDS_P2;PMS_P1;PMS_P2;Temp;Humidity;BMP_temperature;BMP_pressure;BME280_temperature;BME280_humidity;BME280_pressure;Samples;Min_cycle;Max_cycle;Signal;HPM_P1;HPM_P2
2021/11/01 00:01:08;;;;;;;16.70;5.25;;;;;;;11.85;85.11;98713.00;5033094;28;20061;-60
2021/11/01 00:03:35;;;;;;;21.58;4.30;;;;;;;11.73;85.61;98706.34;5033561;28;20053;-59
2021/11/01 00:06:05;;;;;;;21.27;5.38;;;;;;;11.72;85.82;98712.31;5034217;28;20496;-60
2021/11/01 00:08:33;;;;;;;25.83;6.00;;;;;;;11.75;86.25;98715.16;5034002;28;20053;-59
2021/11/01 00:11:01;;;;;;;23.90;5.25;;;;;;;11.71;85.45;98707.91;5033852;28;20049;-60
2021/11/01 00:13:28;;;;;;;14.77;3.65;;;;;;;11.74;85.35;98709.97;5033437;28;20480;-61
2021/11/01 00:15:56;;;;;;;17.27;4.95;;;;;;;11.74;85.65;98713.56;5033806;28;20403;-60
2021/11/01 00:18:25;;;;;;;15.57;5.53;;;;;;;11.72;85.66;98718.72;5033137;28;20057;-61
2021/11/01 00:20:52;;;;;;;17.90;5.40;;;;;;;11.67;85.71;98709.81;5033718;28;20061;-59
2021/11/01 00:23:20;;;;;;;22.13;5.85;;;;;;;11.63;85.46;98700.56;5033619;28;20416;-60
2021/11/01 00:25:47;;;;;;;13.60;3.15;;;;;;;11.56;84.90;98704.81;5033176;28;20072;-60
2021/11/01 00:28:15;;;;;;;19.05;5.63;;;;;;;11.63;85.44;98693.00;5033319;28;20054;-60
2021/11/01 00:30:42;;;;;;;20.70;5.10;;;;;;;11.56;84.98;98688.06;5033369;28;20049;-60
2021/11/01 00:33:10;;;;;;;21.73;4.57;;;;;;;11.55;84.68;98691.25;5033701;28;20045;-60
2021/11/01 00:35:38;;;;;;;15.60;4.60;;;;;;;11.46;83.66;98693.41;5033319;28;20056;-59
2021/11/01 00:38:06;;;;;;;18.58;4.72;;;;;;;11.54;84.85;98695.19;5032936;28;20056;-60
2021/11/01 00:40:36;;;;;;;20.40;5.20;;;;;;;11.55;84.95;98692.03;5032781;28;20064;-60
2021/11/01 00:43:03;;;;;;;13.50;3.92;;;;;;;11.45;84.12;98691.81;5033556;28;20061;-60
2021/11/01 00:45:31;;;;;;;24.08;5.05;;;;;;;11.38;84.16;98703.59;5033057;28;20053;-60
2021/11/01 00:47:59;;;;;;;22.80;5.85;;;;;;;11.27;84.55;98722.84;5032738;28;20053;-59
2021/11/01 00:50:27;;;;;;;21.15;4.13;;;;;;;11.24;84.15;98712.44;5015319;28;20050;-59
2021/11/01 00:52:58;;;;;;;16.73;4.35;;;;;;;11.24;84.58;98706.88;5032866;28;20045;-58
2021/11/01 00:55:34;;;;;;;15.77;4.07;;;;;;;11.28;84.49;98698.59;5032715;28;20482;-59
2021/11/01 00:58:02;;;;;;;13.85;4.32;;;;;;;11.18;82.92;98699.94;5032766;28;20053;-59
2021/11/01 01:00:30;;;;;;;17.13;4.18;;;;;;;11.24;84.44;98698.50;5032760;28;20045;-59
2021/11/01 01:02:58;;;;;;;15.50;4.57;;;;;;;11.28;84.06;98693.03;5032360;28;20056;-57
2021/11/01 01:05:29;;;;;;;15.85;4.47;;;;;;;11.19;84.55;98695.97;5032331;28;20050;-57
2021/11/01 01:07:58;;;;;;;23.00;4.13;;;;;;;11.26;84.67;98698.94;5032892;28;20068;-58
2021/11/01 01:10:29;;;;;;;16.80;4.10;;;;;;;11.20;83.58;98703.19;5032410;28;20064;-58
2021/11/01 01:12:57;;;;;;;15.65;4.07;;;;;;;11.25;84.19;98697.31;5033007;28;20053;-57
2021/11/01 01:15:27;;;;;;;16.77;4.35;;;;;;;11.26;84.46;98692.59;5032264;28;20049;-57
2021/11/01 01:18:01;;;;;;;12.32;4.93;;;;;;;11.28;84.74;98699.41;5032100;28;20060;-56
2021/11/01 01:20:31;;;;;;;16.13;4.40;;;;;;;11.22;84.13;98700.84;5032325;28;20519;-55
2021/11/01 01:22:59;;;;;;;18.88;4.30;;;;;;;11.27;84.67;98702.53;5032738;28;20053;-58
2021/11/01 01:25:37;;;;;;;20.70;4.10;;;;;;;11.27;84.29;98692.19;5032143;28;20057;-57
2021/11/01 01:28:08;;;;;;;13.95;4.28;;;;;;;11.32;84.42;98688.34;5029776;28;20049;-58
2021/11/01 01:30:35;;;;;;;16.33;3.70;;;;;;;11.21;83.77;98688.06;5031937;28;20056;-58
2021/11/01 01:33:03;;;;;;;15.98;3.75;;;;;;;11.29;83.96;98694.63;5031903;28;20053;-58
2021/11/01 01:35:34;;;;;;;15.90;3.97;;;;;;;11.24;84.25;98681.78;5032403;28;20049;-58
2021/11/01 01:38:03;;;;;;;14.55;3.58;;;;;;;11.22;83.16;98683.31;5032448;28;20058;-58
2021/11/01 01:40:30;;;;;;;20.97;4.23;;;;;;;11.08;84.18;98678.22;5032182;28;20053;-57
2021/11/01 01:42:57;;;;;;;17.20;3.65;;;;;;;11.06;84.12;98674.97;5032606;28;20141;-57
2021/11/01 01:45:24;;;;;;;22.33;3.78;;;;;;;11.13;83.81;98686.31;5032411;28;20057;-58
2021/11/01 01:47:53;;;;;;;11.07;3.38;;;;;;;11.05;83.73;98668.59;5031836;28;20068;-56
2021/11/01 01:50:20;;;;;;;14.07;2.85;;;;;;;10.96;82.49;98665.19;5014857;28;20057;-55
2021/11/01 01:52:49;;;;;;;9.90;2.65;;;;;;;11.07;84.14;98671.03;5032439;28;20049;-56
2021/11/01 01:55:19;;;;;;;16.50;2.95;;;;;;;11.06;83.70;98677.78;5032471;28;20053;-57
2021/11/01 01:57:48;;;;;;;10.85;2.60;;;;;;;11.07;82.68;98677.41;5031728;28;20084;-55
2021/11/01 02:00:27;;;;;;;12.57;2.57;;;;;;;11.06;83.05;98661.06;5032182;28;20480;-55
2021/11/01 02:02:54;;;;;;;11.70;2.90;;;;;;;11.04;83.30;98672.53;5031318;28;20045;-56
2021/11/01 02:05:22;;;;;;;12.82;3.10;;;;;;;11.11;83.85;98669.16;5032161;28;20390;-57
2021/11/01 02:07:55;;;;;;;14.10;2.78;;;;;;;11.06;82.02;98659.06;5031912;28;20049;-57
2021/11/01 02:10:29;;;;;;;10.70;2.47;;;;;;;11.02;82.76;98668.50;5032194;28;20049;-57
2021/11/01 02:13:02;;;;;;;8.75;2.50;;;;;;;11.05;82.81;98667.81;5031835;28;20056;-57
2021/11/01 02:15:36;;;;;;;13.43;2.80;;;;;;;11.10;82.85;98670.31;5031044;28;20049;-56
2021/11/01 02:18:06;;;;;;;10.20;1.92;;;;;;;10.99;82.61;98663.69;5031618;28;20511;-56
2021/11/01 02:20:37;;;;;;;;;;;;;;;11.07;80.61;98671.03;5032197;28;20057;-57
2021/11/01 02:23:13;;;;;;;10.20;2.08;;;;;;;11.02;81.46;98666.53;5031952;28;19925;-56
2021/11/01 02:25:45;;;;;;;9.82;2.78;;;;;;;11.10;81.48;98671.09;5031517;28;20049;-57
2021/11/01 02:28:15;;;;;;;8.10;2.30;;;;;;;11.13;82.71;98664.03;5029338;28;20053;-57
2021/11/01 02:30:44;;;;;;;7.75;2.08;;;;;;;11.16;82.36;98664.09;5031548;28;20058;-56
2021/11/01 02:33:13;;;;;;;12.63;2.50;;;;;;;11.10;82.14;98656.38;5031864;28;20056;-57
2021/11/01 02:35:42;;;;;;;5.87;1.80;;;;;;;11.09;82.35;98663.13;5031087;28;20053;-56
2021/11/01 02:38:13;;;;;;;10.88;2.67;;;;;;;11.11;81.90;98656.03;5031601;28;20835;-55
2021/11/01 02:40:42;;;;;;;11.75;2.53;;;;;;;11.21;82.25;98648.25;5031499;28;20050;-57
2021/11/01 02:43:09;;;;;;;20.50;2.67;;;;;;;11.13;81.98;98648.09;5030537;28;20045;-56
2021/11/01 02:45:40;;;;;;;8.25;1.90;;;;;;;11.03;80.91;98657.00;5031342;28;20049;-57
2021/11/01 02:48:07;;;;;;;12.65;2.40;;;;;;;11.11;82.12;98646.84;5031403;28;20053;-56
2021/11/01 02:50:35;;;;;;;11.68;2.33;;;;;;;11.11;81.38;98644.06;5028084;28;20053;-54
2021/11/01 02:53:03;;;;;;;9.93;1.85;;;;;;;11.03;79.95;98650.66;5013435;28;20396;-56
2021/11/01 02:55:36;;;;;;;9.13;2.00;;;;;;;11.11;81.50;98644.06;5031359;28;20050;-56
2021/11/01 02:58:05;;;;;;;8.70;2.35;;;;;;;11.10;80.13;98639.66;5031488;28;20072;-57
2021/11/01 03:00:33;;;;;;;11.13;2.20;;;;;;;11.18;81.85;98641.44;5031262;28;20060;-55
2021/11/01 03:03:05;;;;;;;8.55;2.05;;;;;;;11.02;79.34;98627.53;5031011;28;20058;-57
2021/11/01 03:05:33;;;;;;;11.02;2.13;;;;;;;11.07;80.71;98630.06;5031426;28;20103;-57
2021/11/01 03:08:01;;;;;;;6.97;2.47;;;;;;;11.08;80.81;98636.41;5031365;28;20064;-54
2021/11/01 03:10:30;;;;;;;9.82;2.25;;;;;;;11.11;81.20;98641.28;5031587;28;20052;-56
2021/11/01 03:12:59;;;;;;;12.00;2.38;;;;;;;11.09;80.82;98643.63;5031174;28;20076;-57
2021/11/01 03:15:30;;;;;;;10.20;2.10;;;;;;;11.13;80.47;98641.72;5031359;28;20057;-57
2021/11/01 03:18:00;;;;;;;8.23;2.00;;;;;;;11.17;80.85;98648.16;5031002;28;20053;-54
2021/11/01 03:20:30;;;;;;;8.32;1.90;;;;;;;11.07;79.65;98641.19;5030166;28;20057;-57
2021/11/01 03:23:02;;;;;;;9.02;2.03;;;;;;;11.12;80.54;98626.16;5031142;28;20519;-57
2021/11/01 03:25:36;;;;;;;8.02;2.13;;;;;;;11.13;80.33;98636.16;5031256;28;20171;-55
2021/11/01 03:28:05;;;;;;;7.25;1.58;;;;;;;10.99;79.28;98633.03;5033615;28;20419;-58
2021/11/01 03:30:38;;;;;;;13.68;2.20;;;;;;;11.07;79.65;98632.03;5034792;28;20049;-58
2021/11/01 03:33:10;;;;;;;10.00;1.85;;;;;;;11.03;79.52;98639.50;5034553;28;20049;-58
2021/11/01 03:35:38;;;;;;;8.70;1.90;;;;;;;11.14;80.20;98643.34;5034230;28;20049;-56
2021/11/01 03:38:07;;;;;;;6.95;1.48;;;;;;;11.12;79.94;98645.66;5034603;28;20444;-59
2021/11/01 03:40:36;;;;;;;13.63;2.17;;;;;;;11.07;79.45;98643.19;5034252;28;20053;-58
2021/11/01 03:43:05;;;;;;;8.70;1.98;;;;;;;11.00;79.59;98646.59;5034350;28;20054;-59
2021/11/01 03:45:35;;;;;;;10.77;1.95;;;;;;;10.94;78.68;98656.38;5034838;28;20053;-58
2021/11/01 03:48:04;;;;;;;6.05;1.80;;;;;;;10.89;78.78;98653.88;5034326;28;20503;-57
2021/11/01 03:50:37;;;;;;;10.82;1.95;;;;;;;10.92;79.52;98651.19;5032928;28;20064;-56
2021/11/01 03:53:05;;;;;;;8.23;1.88;;;;;;;11.01;79.64;98648.22;5034295;28;20045;-59
2021/11/01 03:55:33;;;;;;;7.35;2.10;;;;;;;11.10;79.94;98653.59;5034322;28;20065;-58
2021/11/01 03:58:01;;;;;;;11.02;2.20;;;;;;;10.97;79.59;98659.25;5034217;28;20488;-56
2021/11/01 04:00:31;;;;;;;6.43;2.00;;;;;;;11.00;79.72;98659.72;5034130;28;20511;-58
2021/11/01 04:03:01;;;;;;;8.02;2.45;;;;;;;11.00;79.55;98651.34;5033201;28;20082;-57
2021/11/01 04:05:29;;;;;;;10.57;2.00;;;;;;;11.01;79.30;98650.19;5033973;28;20053;-59
2021/11/01 04:07:57;;;;;;;6.47;1.73;;;;;;;11.02;79.04;98663.75;5033798;28;20057;-56
2021/11/01 04:10:24;;;;;;;9.13;1.90;;;;;;;10.80;79.27;98656.06;5034055;28;20053;-59
2021/11/01 04:12:51;;;;;;;8.88;1.75;;;;;;;10.84;79.19;98649.41;5031893;28;20052;-59
2021/11/01 04:15:21;;;;;;;7.13;1.60;;;;;;;10.86;79.59;98652.63;5026760;28;20050;-56
2021/11/01 04:17:52;;;;;;;8.75;1.83;;;;;;;10.80;78.76;98662.44;5032927;28;20053;-57
2021/11/01 04:20:30;;;;;;;6.57;1.88;;;;;;;10.85;79.47;98670.50;5019989;28;20053;-57
2021/11/01 04:23:01;;;;;;;7.13;1.60;;;;;;;10.84;79.81;98665.31;5033700;28;20053;-58
2021/11/01 04:25:30;;;;;;;10.57;1.60;;;;;;;10.87;79.21;98675.72;5033876;28;20053;-59
2021/11/01 04:27:59;;;;;;;7.25;1.60;;;;;;;10.74;79.87;98667.47;5033387;28;20049;-58
2021/11/01 04:30:30;;;;;;;7.53;1.67;;;;;;;10.74;79.92;98659.09;5033524;28;20067;-58
2021/11/01 04:33:01;;;;;;;8.20;1.58;;;;;;;10.75;80.61;98655.16;5032923;28;20068;-59
2021/11/01 04:35:34;;;;;;;6.43;1.60;;;;;;;10.81;79.70;98657.66;5032912;28;20057;-59
2021/11/01 04:38:08;;;;;;;5.88;1.55;;;;;;;10.87;79.83;98647.88;5033124;28;20057;-56
2021/11/01 04:40:56;;;;;;;7.70;1.67;;;;;;;10.78;79.91;98659.19;5033620;28;20423;-58
2021/11/01 04:54:20;;;;;;;13.10;2.90;;;;;;;10.64;80.14;98647.72;5035971;28;20064;-56
2021/11/01 04:56:48;;;;;;;8.35;2.00;;;;;;;10.70;80.70;98646.28;5033293;28;20060;-57
2021/11/01 04:59:16;;;;;;;6.88;1.77;;;;;;;10.59;80.10;98659.13;5033113;28;20053;-56
2021/11/01 05:01:46;;;;;;;6.53;1.75;;;;;;;10.66;80.81;98645.38;5032854;28;20053;-57
2021/11/01 05:04:16;;;;;;;5.25;1.88;;;;;;;10.70;80.22;98651.84;5032305;28;20061;-57
2021/11/01 05:06:50;;;;;;;8.85;2.10;;;;;;;10.62;80.86;98644.47;5031720;28;20057;-59
2021/11/01 05:09:18;;;;;;;5.85;1.75;;;;;;;10.55;81.00;98657.03;5033045;28;20064;-58
2021/11/01 05:11:55;;;;;;;8.75;2.05;;;;;;;10.64;81.37;98647.72;5032314;28;20500;-58
2021/11/01 05:14:29;;;;;;;5.15;1.58;;;;;;;10.57;80.63;98643.56;5032912;28;20049;-59
2021/11/01 05:17:07;;;;;;;5.00;1.77;;;;;;;10.46;80.82;98658.41;5032766;28;20053;-56
2021/11/01 05:19:39;;;;;;;7.22;1.85;;;;;;;10.48;80.73;98651.31;5032204;28;20050;-59
2021/11/01 05:22:15;;;;;;;5.15;1.52;;;;;;;10.52;80.47;98648.59;5032368;28;20143;-59
2021/11/01 05:24:48;;;;;;;8.43;1.95;;;;;;;10.60;80.82;98646.81;5013027;28;20062;-57
2021/11/01 05:30:17;;;;;;;4.90;1.60;;;;;;;10.33;80.98;98649.31;4991578;28;20058;-56
2021/11/01 05:32:55;;;;;;;5.68;1.40;;;;;;;10.51;81.11;98656.16;4992404;28;20061;-59
2021/11/01 05:35:23;;;;;;;8.23;1.67;;;;;;;10.56;81.27;98664.25;5017089;28;20087;-58
2021/11/01 05:37:52;;;;;;;7.53;2.05;;;;;;;10.56;80.70;98669.81;5031771;28;20050;-57
2021/11/01 05:40:22;;;;;;;8.77;2.15;;;;;;;10.56;81.01;98658.69;5032542;28;20053;-59
2021/11/01 05:42:49;;;;;;;5.20;1.80;;;;;;;10.48;80.87;98654.09;5032255;28;20065;-59
2021/11/01 05:45:17;;;;;;;6.47;1.55;;;;;;;10.56;81.13;98661.47;5032454;28;20053;-58
2021/11/01 05:47:48;;;;;;;9.38;1.95;;;;;;;10.50;81.02;98656.53;5031764;28;20053;-58
2021/11/01 05:50:15;;;;;;;5.90;2.03;;;;;;;10.56;80.79;98661.47;5020525;28;20056;-58
2021/11/01 05:52:44;;;;;;;8.50;1.67;;;;;;;10.51;79.31;98656.16;5032204;28;20542;-57
2021/11/01 05:55:26;;;;;;;7.70;2.00;;;;;;;10.54;80.03;98643.47;5032321;28;20053;-56
2021/11/01 05:58:06;;;;;;;5.07;1.67;;;;;;;10.43;79.79;98653.53;5031888;28;20042;-55
2021/11/01 06:03:20;;;;;;;5.93;1.55;;;;;;;10.53;80.49;98645.47;5027077;28;20049;-55
2021/11/01 06:08:46;;;;;;;8.35;1.45;;;;;;;10.49;79.40;98649.31;5006211;28;20396;-56
2021/11/01 06:13:59;;;;;;;5.95;1.45;;;;;;;10.53;79.35;98651.03;5030160;28;20399;-55
2021/11/01 06:16:27;;;;;;;5.70;1.67;;;;;;;10.59;79.49;98656.34;5030971;28;20045;-55
2021/11/01 06:18:54;;;;;;;8.98;1.50;;;;;;;10.55;79.32;98651.47;5031862;28;20045;-57
2021/11/01 06:21:22;;;;;;;8.77;1.50;;;;;;;10.55;78.65;98651.47;5031870;28;20053;-57
2021/11/01 06:23:54;;;;;;;5.35;1.38;;;;;;;10.49;77.99;98658.47;5031386;28;20380;-57
2021/11/01 06:26:25;;;;;;;4.68;1.23;;;;;;;10.53;78.06;98658.56;5012149;28;20053;-57
2021/11/01 06:28:57;;;;;;;5.38;1.15;;;;;;;10.50;77.70;98659.31;5029309;28;20045;-57
2021/11/01 06:31:28;;;;;;;7.20;1.80;;;;;;;10.50;77.96;98667.66;5031627;28;20053;-57
2021/11/01 06:34:05;;;;;;;6.97;2.00;;;;;;;10.54;77.28;98652.66;5031692;28;20049;-57
2021/11/01 06:39:25;;;;;;;7.03;1.50;;;;;;;10.51;78.06;98672.84;5035091;28;20056;-58
2021/11/01 06:44:49;;;;;;;4.88;1.40;;;;;;;10.44;77.53;98699.72;5018496;28;20061;-56
2021/11/01 06:50:07;;;;;;;9.52;2.65;;;;;;;10.45;77.54;98698.53;5026172;28;20061;-55
2021/11/01 07:14:52;;;;;;;4.30;1.45;;;;;;;10.50;77.90;98743.63;5017600;28;20411;-55
2021/11/01 07:17:28;;;;;;;6.05;1.52;;;;;;;10.53;77.53;98742.88;5034365;28;20060;-56
2021/11/01 07:20:12;;;;;;;3.95;1.23;;;;;;;10.75;76.41;98737.88;5034998;28;20587;-54
2021/11/01 08:37:49;;;;;;;4.30;1.40;;;;;;;20.23;42.19;98748.44;5030950;28;20112;-65
2021/11/01 08:49:26;;;;;;;3.42;1.05;;;;;;;20.33;40.60;98756.00;4978414;28;20483;-79
2021/11/01 09:01:16;;;;;;;6.38;1.70;;;;;;;21.21;39.32;98754.41;4965658;28;20051;-79
2021/11/01 09:03:53;;;;;;;4.38;1.33;;;;;;;22.55;35.61;98765.72;4958737;28;20074;-77
2021/11/01 09:20:12;;;;;;;5.68;1.27;;;;;;;20.92;37.66;98754.03;4995272;28;20050;-78
2021/11/01 09:25:44;;;;;;;3.28;1.20;;;;;;;20.88;37.69;98757.69;4960404;28;20058;-78
2021/11/01 09:28:17;;;;;;;4.78;1.55;;;;;;;19.17;40.42;98771.59;4971527;28;20063;-79
2021/11/01 09:41:48;;;;;;;5.10;1.75;;;;;;;16.64;47.34;98759.22;4973137;28;20427;-79
2021/11/01 09:44:23;;;;;;;6.57;1.70;;;;;;;16.61;47.60;98762.03;4988063;28;20057;-79
2021/11/01 09:47:08;;;;;;;7.30;1.45;;;;;;;16.87;46.67;98768.56;5018639;28;20056;-79
2021/11/01 09:49:35;;;;;;;5.18;1.20;;;;;;;17.17;45.65;98768.19;5012992;28;20061;-79
2021/11/01 09:52:08;;;;;;;6.18;1.75;;;;;;;16.66;47.10;98766.47;5006226;28;20050;-80
2021/11/01 09:54:37;;;;;;;3.58;1.40;;;;;;;16.32;47.50;98783.63;5017158;28;20053;-80
2021/11/01 09:57:09;;;;;;;8.07;1.65;;;;;;;16.56;46.77;98763.22;5016310;28;20052;-80
2021/11/01 09:59:40;;;;;;;5.32;1.45;;;;;;;16.42;47.09;98768.78;5012245;28;20046;-80
2021/11/01 10:02:09;;;;;;;5.78;1.70;;;;;;;16.32;48.20;98763.94;5017707;28;20422;-82
2021/11/01 10:04:38;;;;;;;3.53;1.27;;;;;;;17.18;46.58;98775.44;5015863;28;20054;-81
2021/11/01 10:07:21;;;;;;;10.13;1.57;;;;;;;17.56;44.66;98764.56;5013305;28;20767;-79
2021/11/01 10:10:04;;;;;;;4.65;1.30;;;;;;;17.35;45.81;98774.63;5010015;28;20058;-79
2021/11/01 10:12:35;;;;;;;4.38;1.70;;;;;;;18.43;43.39;98778.03;5014198;28;20062;-79
2021/11/01 10:17:55;;;;;;;4.32;1.17;;;;;;;18.44;40.88;98784.50;5011511;28;20056;-79
2021/11/01 10:20:29;;;;;;;4.15;1.30;;;;;;;19.29;39.99;98762.66;5006409;28;20054;-79
2021/11/01 10:22:56;;;;;;;2.78;1.08;;;;;;;19.76;39.12;98767.91;5014013;28;20054;-78
2021/11/01 10:25:27;;;;;;;5.50;1.30;;;;;;;19.19;39.65;98763.53;5012832;28;20046;-78
2021/11/01 10:27:57;;;;;;;3.35;1.23;;;;;;;19.02;40.48;98768.91;5011688;28;20053;-79
2021/11/01 10:30:29;;;;;;;5.85;1.55;;;;;;;20.17;38.52;98753.75;5007914;28;20053;-79
2021/11/01 10:32:58;;;;;;;6.20;1.70;;;;;;;20.38;38.20;98754.72;5014353;28;20046;-79
2021/11/01 10:35:31;;;;;;;5.78;1.30;;;;;;;19.93;38.21;98760.47;5012527;28;20050;-79
2021/11/01 10:38:01;;;;;;;3.50;1.25;;;;;;;19.68;39.11;98758.69;5016556;28;20049;-80
2021/11/01 10:40:31;;;;;;;4.80;1.40;;;;;;;20.58;37.80;98744.38;5009710;28;20053;-80
2021/11/01 10:43:19;;;;;;;2.97;1.58;;;;;;;21.22;35.97;98759.59;5007067;28;20574;-79
2021/11/01 11:11:41;;;;;;;5.55;1.98;;;;;;;16.84;44.63;98725.97;5019711;28;19917;-80
2021/11/01 11:17:14;;;;;;;4.05;1.23;;;;;;;18.72;40.48;98723.53;5018768;28;20054;-81
2021/11/01 11:20:06;;;;;;;3.83;1.58;;;;;;;20.58;36.91;98698.31;5018623;28;20046;-80
2021/11/01 11:22:58;;;;;;;3.47;1.25;;;;;;;21.12;35.35;98708.81;5017434;28;20439;-80
2021/11/01 11:25:43;;;;;;;3.63;1.10;;;;;;;22.03;33.22;98696.25;5018142;28;20073;-80
2021/11/01 11:28:41;;;;;;;3.72;1.20;;;;;;;22.45;32.82;98702.31;5018607;28;20483;-81
2021/11/01 11:40:04;;;;;;;2.75;1.00;;;;;;;20.99;32.94;98732.06;5003702;28;20064;-80
2021/11/01 11:48:21;;;;;;;2.88;1.05;;;;;;;22.95;29.83;98710.91;4959902;28;20051;-82
2021/11/01 11:50:52;;;;;;;3.58;1.10;;;;;;;22.58;30.23;98713.78;4958336;28;20559;-82
2021/11/01 11:53:25;;;;;;;2.00;0.88;;;;;;;21.56;32.54;98704.84;4989622;28;20068;-82
2021/11/01 11:56:04;;;;;;;2.63;1.02;;;;;;;22.85;31.01;98695.75;5019366;28;20041;-82
2021/11/01 11:58:37;;;;;;;2.85;1.48;;;;;;;21.38;32.69;98704.34;5019524;28;20049;-83
2021/11/01 12:01:22;;;;;;;2.25;0.90;;;;;;;22.29;31.79;98705.88;5019690;28;20057;-83
2021/11/01 12:03:49;;;;;;;4.80;1.48;;;;;;;22.09;31.87;98702.22;5018629;28;20053;-84
2021/11/01 12:06:21;;;;;;;3.92;1.02;;;;;;;22.55;31.19;98705.34;5017979;28;20046;-83
2021/11/01 12:08:55;;;;;;;2.80;0.90;;;;;;;21.79;31.91;98706.06;4999757;28;20050;-84
2021/11/01 12:14:34;;;;;;;3.63;1.23;;;;;;;21.37;32.93;98702.72;4967972;28;20503;-83
2021/11/01 12:17:11;;;;;;;3.10;1.27;;;;;;;21.33;32.55;98696.31;5000056;28;20050;-84
2021/11/01 12:19:39;;;;;;;2.38;0.90;;;;;;;21.19;32.49;98705.88;5000795;28;20455;-83
2021/11/01 12:22:12;;;;;;;2.55;1.25;;;;;;;20.43;33.54;98694.84;4999749;28;20046;-82
2021/11/01 12:24:51;;;;;;;3.25;0.85;;;;;;;21.17;32.48;98691.34;5011609;28;20054;-83
2021/11/01 12:27:19;;;;;;;2.80;0.80;;;;;;;20.33;33.10;98693.00;5017471;28;20049;-83
2021/11/01 12:29:48;;;;;;;3.25;1.02;;;;;;;19.87;34.20;98695.94;5017989;28;20061;-83
2021/11/01 12:32:16;;;;;;;2.67;0.90;;;;;;;19.95;33.79;98695.84;5018225;28;20057;-82
2021/11/01 12:34:53;;;;;;;3.28;1.20;;;;;;;20.60;33.24;98699.50;5018562;28;20061;-83
2021/11/01 12:37:24;;;;;;;3.10;1.17;;;;;;;21.38;31.40;98687.34;5018307;28;20054;-82
2021/11/01 12:40:04;;;;;;;5.00;1.08;;;;;;;21.11;31.45;98704.41;5017405;28;20427;-83
2021/11/01 12:42:41;;;;;;;2.15;1.10;;;;;;;21.88;30.46;98698.59;5016512;28;20054;-83
2021/11/01 12:59:00;;;;;;;2.20;0.90;;;;;;;23.42;28.14;98670.81;5001021;28;20061;-84
2021/11/01 13:01:29;;;;;;;3.13;1.20;;;;;;;24.23;27.37;98669.00;4998605;28;20053;-85
2021/11/01 13:04:07;;;;;;;2.22;0.80;;;;;;;24.09;28.14;98670.22;4998200;28;20065;-84
2021/11/01 13:06:49;;;;;;;2.78;1.15;;;;;;;22.99;28.74;98658.47;4998891;28;20050;-84
2021/11/01 13:09:28;;;;;;;2.67;1.13;;;;;;;23.85;28.58;98670.47;4998275;28;20062;-84
2021/11/01 13:12:18;;;;;;;3.72;1.63;;;;;;;24.21;26.89;98669.47;5003387;28;20094;-84
2021/11/01 13:14:59;;;;;;;3.17;1.23;;;;;;;23.85;27.90;98661.94;5000091;28;20050;-84
2021/11/01 13:20:18;;;;;;;3.17;1.20;;;;;;;22.76;28.37;98670.78;4997464;28;20069;-84
2021/11/01 13:22:47;;;;;;;3.33;1.50;;;;;;;22.46;28.46;98675.50;4998478;28;20062;-84
2021/11/01 13:25:21;;;;;;;4.32;1.65;;;;;;;21.77;29.46;98669.63;4999629;28;20054;-84
2021/11/01 13:27:59;;;;;;;2.10;1.10;;;;;;;22.52;28.65;98669.34;5018292;28;20050;-84
2021/11/01 13:36:25;;;;;;;5.17;1.70;;;;;;;22.79;29.04;98654.94;5018324;28;20076;-84
2021/11/01 13:38:57;;;;;;;3.05;1.10;;;;;;;22.68;28.45;98655.97;5018043;28;21027;-84
2021/11/01 13:41:28;;;;;;;2.80;1.20;;;;;;;22.18;29.18;98671.25;5017315;28;20050;-84
2021/11/01 13:44:08;;;;;;;3.85;1.30;;;;;;;21.98;30.24;98659.91;5016685;28;20503;-83
2021/11/01 13:46:44;;;;;;;2.60;1.10;;;;;;;22.45;29.55;98676.78;5017020;28;20057;-84
2021/11/01 13:49:11;;;;;;;3.38;1.20;;;;;;;22.20;29.23;98677.28;5018184;28;20173;-84
2021/11/01 13:51:39;;;;;;;2.47;1.15;;;;;;;21.69;29.98;98680.31;5018804;28;20045;-84
2021/11/01 13:54:10;;;;;;;2.65;0.82;;;;;;;19.84;33.02;98679.03;5019217;28;20057;-84
2021/11/01 13:56:43;;;;;;;5.00;1.40;;;;;;;19.60;33.88;98673.22;5018299;28;20057;-84
2021/11/01 13:59:26;;;;;;;2.85;0.90;;;;;;;19.33;34.03;98672.28;5019040;28;20396;-84
2021/11/01 14:02:16;;;;;;;5.45;1.20;;;;;;;18.19;36.01;98675.47;5016679;28;20104;-84
2021/11/01 14:13:07;;;;;;;1.85;0.82;;;;;;;17.43;37.86;98691.78;5006159;28;20065;-84
2021/11/01 14:27:24;;;;;;;2.90;1.02;;;;;;;16.49;39.87;98694.94;4979202;28;20050;-84
2021/11/01 14:33:08;;;;;;;3.75;1.08;;;;;;;16.05;40.79;98690.41;4999910;28;20054;-83
2021/11/01 15:15:22;;;;;;;5.80;1.15;;;;;;;15.21;43.74;98696.69;5000645;28;20058;-83
2021/11/01 15:18:08;;;;;;;4.35;1.00;;;;;;;15.12;43.30;98704.63;5005126;28;20054;-84
2021/11/01 15:20:51;;;;;;;4.82;1.00;;;;;;;15.15;43.61;98698.25;5004327;28;20055;-83
2021/11/01 15:26:41;;;;;;;3.33;0.90;;;;;;;14.74;44.29;98704.72;4991168;28;20050;-84
2021/11/01 15:35:09;;;;;;;5.38;1.17;;;;;;;14.61;45.02;98703.38;4983856;28;20050;-84
2021/11/01 15:40:38;;;;;;;4.38;0.90;;;;;;;14.46;45.43;98713.59;5006649;28;20785;-83
2021/11/01 16:18:47;;;;;;;5.10;1.02;;;;;;;13.25;49.79;98719.19;4996432;28;20077;-83
2021/11/01 16:21:17;;;;;;;3.67;0.90;;;;;;;13.23;49.71;98727.16;4997811;28;20054;-83
2021/11/01 16:23:44;;;;;;;;;;;;;;;13.09;50.36;98715.72;4998239;28;20054;-83
2021/11/01 16:26:23;;;;;;;4.25;0.85;;;;;;;13.10;49.70;98717.34;4998223;28;19926;-82
2021/11/01 16:28:56;;;;;;;2.88;0.70;;;;;;;13.02;50.12;98715.59;4998030;28;20407;-83
2021/11/01 16:31:40;;;;;;;3.38;1.00;;;;;;;13.04;50.24;98716.84;4998571;28;20057;-82
2021/11/01 16:34:12;;;;;;;6.28;1.40;;;;;;;13.03;50.07;98726.41;5004925;28;20407;-82
2021/11/01 16:36:47;;;;;;;4.43;1.10;;;;;;;12.78;51.05;98732.38;5012207;28;20389;-82
2021/11/01 16:39:16;;;;;;;6.15;2.05;;;;;;;12.79;50.95;98730.41;5011753;28;20061;-81
2021/11/01 16:41:47;;;;;;;3.78;0.95;;;;;;;12.79;50.71;98722.81;5009523;28;20104;-81
2021/11/01 16:44:23;;;;;;;3.25;1.00;;;;;;;12.64;51.18;98734.09;4998834;28;20066;-81
2021/11/01 16:46:51;;;;;;;2.80;0.88;;;;;;;12.72;51.27;98730.25;5009046;28;20065;-82
2021/11/01 16:49:20;;;;;;;4.00;0.90;;;;;;;12.65;50.96;98730.16;5000833;28;20057;-81
2021/11/01 16:51:49;;;;;;;8.32;1.38;;;;;;;12.61;51.05;98734.84;5012173;28;20050;-80
2021/11/01 16:54:19;;;;;;;2.80;0.93;;;;;;;12.64;51.21;98734.94;5014831;28;20061;-81
2021/11/01 16:56:58;;;;;;;3.60;0.90;;;;;;;12.59;51.40;98736.00;5014683;28;20050;-80
2021/11/01 16:59:39;;;;;;;3.78;0.90;;;;;;;12.54;51.75;98733.53;5014463;28;20057;-81
2021/11/01 17:04:54;;;;;;;7.20;2.05;;;;;;;12.44;52.96;98748.09;4992516;28;20057;-81
2021/11/01 17:07:32;;;;;;;5.57;1.83;;;;;;;12.38;53.00;98744.00;5013078;28;20407;-82
2021/11/01 17:24:13;;;;;;;5.32;2.30;;;;;;;11.94;53.92;98747.09;4970706;28;20046;-80
2021/11/01 17:27:10;;;;;;;5.68;1.35;;;;;;;11.85;54.29;98747.28;4972112;28;20456;-80
2021/11/01 17:35:40;;;;;;;4.32;1.25;;;;;;;11.56;54.94;98751.41;4973869;28;20407;-81
2021/11/01 18:39:52;;;;;;;4.38;2.00;;;;;;;11.36;55.80;98778.44;4971421;28;20057;-80
2021/11/01 18:42:42;;;;;;;4.43;1.50;;;;;;;11.31;55.77;98773.91;4976971;28;20065;-83
2021/11/01 18:51:08;;;;;;;4.32;1.75;;;;;;;10.90;63.81;98778.88;5013737;28;20055;-80
2021/11/01 18:53:53;;;;;;;7.15;2.08;;;;;;;10.89;60.47;98782.00;5009468;28;21815;-77
2021/11/01 18:56:30;;;;;;;2.92;1.40;;;;;;;11.07;63.06;98774.13;5013321;28;20056;-77
2021/11/01 18:59:01;;;;;;;6.03;1.80;;;;;;;11.39;56.64;98777.69;5016872;28;20049;-79
2021/11/01 19:01:33;;;;;;;3.45;1.50;;;;;;;11.30;56.61;98775.09;5005191;28;20058;-79
2021/11/01 19:04:03;;;;;;;6.80;1.70;;;;;;;11.31;56.08;98773.13;5015456;28;20049;-80
2021/11/01 19:06:39;;;;;;;4.72;1.50;;;;;;;11.38;55.97;98764.91;5010283;28;20046;-80
2021/11/01 20:06:26;;;;;;;3.83;1.50;;;;;;;10.72;59.81;98752.53;4975452;28;20409;-78
2021/11/01 20:14:45;;;;;;;4.97;1.80;;;;;;;10.61;60.52;98754.25;5017036;28;20057;-78
2021/11/01 21:24:48;;;;;;;4.45;1.65;;;;;;;10.50;63.46;98745.59;5000301;28;20057;-78
2021/11/01 21:27:21;;;;;;;6.38;1.38;;;;;;;10.51;63.40;98747.19;5004917;28;20054;-78
2021/11/01 21:29:52;;;;;;;6.30;1.23;;;;;;;10.28;65.07;98746.94;5012490;28;20495;-85
2021/11/01 21:32:22;;;;;;;5.75;1.40;;;;;;;10.42;66.02;98758.50;5010027;28;20403;-81